createdAt,value
2023-04-17T00:01:05.805Z,14.15
2023-04-17T00:04:10.970Z,13.57
2023-04-17T00:07:13.826Z,15.18
2023-04-17T00:10:16.749Z,14.05
2023-04-17T00:13:19.100Z,15.80
2023-04-17T00:16:21.412Z,13.93
2023-04-17T00:19:23.818Z,18.38
2023-04-17T00:22:26.304Z,15.73
2023-04-17T00:25:28.634Z,15.30
2023-04-17T00:28:31.011Z,16.00
2023-04-17T00:31:33.376Z,16.23
2023-04-17T00:34:35.895Z,15.90
2023-04-17T00:37:38.232Z,17.48
2023-04-17T00:40:42.130Z,17.15
2023-04-17T00:43:44.443Z,16.35
2023-04-17T00:46:47.036Z,15.80
2023-04-17T00:49:51.205Z,15.95
2023-04-17T00:55:56.170Z,17.23
2023-04-17T00:58:58.847Z,18.67
2023-04-17T01:02:01.373Z,17.17
2023-04-17T01:05:04.492Z,18.10
2023-04-17T01:08:06.928Z,16.35
2023-04-17T01:11:10.423Z,17.60
2023-04-17T01:14:15.670Z,19.80
2023-04-17T01:17:19.673Z,17.73
2023-04-17T01:20:22.389Z,18.45
2023-04-17T01:23:24.805Z,18.17
2023-04-17T01:26:28.421Z,20.73
2023-04-17T01:29:31.054Z,18.27
2023-04-17T01:32:33.734Z,25.02
2023-04-17T01:35:36.139Z,19.92
2023-04-17T01:38:38.760Z,21.73
2023-04-17T01:41:41.248Z,21.85
2023-04-17T01:44:43.750Z,20.55
2023-04-17T01:47:46.128Z,20.88
2023-04-17T01:50:48.469Z,24.00
2023-04-17T01:53:50.781Z,23.15
2023-04-17T01:56:53.408Z,19.55
2023-04-17T01:59:57.238Z,21.73
2023-04-17T02:03:00.361Z,22.83
2023-04-17T02:06:02.840Z,19.95
2023-04-17T02:09:06.318Z,19.20
2023-04-17T02:12:11.635Z,18.85
2023-04-17T02:15:14.141Z,20.30
2023-04-17T02:18:16.811Z,24.15
2023-04-17T02:21:19.173Z,20.10
2023-04-17T02:24:21.474Z,22.65
2023-04-17T02:27:23.795Z,21.25
2023-04-17T02:30:27.336Z,18.27
2023-04-17T02:33:31.503Z,20.85
2023-04-17T02:36:34.585Z,21.67
2023-04-17T02:39:36.972Z,22.52
2023-04-17T02:42:39.331Z,22.70
2023-04-17T02:45:41.577Z,22.60
2023-04-17T02:48:44.164Z,24.27
2023-04-17T02:51:46.654Z,25.77
2023-04-17T02:54:49.042Z,24.17
2023-04-17T02:57:52.880Z,25.48
2023-04-17T03:01:01.936Z,23.90
2023-04-17T03:04:06.885Z,25.70
2023-04-17T03:07:10.603Z,27.20
2023-04-17T03:10:14.634Z,28.38
2023-04-17T03:13:16.993Z,27.52
2023-04-17T03:16:19.330Z,25.20
2023-04-17T03:19:22.369Z,28.15
2023-04-17T03:22:25.669Z,27.77
2023-04-17T03:25:28.204Z,27.67
2023-04-17T03:28:31.113Z,28.83
2023-04-17T03:31:33.455Z,28.80
2023-04-17T03:34:35.864Z,28.92
2023-04-17T03:37:38.214Z,32.58
2023-04-17T03:40:41.989Z,30.20
2023-04-17T03:43:45.784Z,37.05
2023-04-17T03:46:48.139Z,36.25
2023-04-17T03:49:50.612Z,30.98
2023-04-17T03:52:53.844Z,29.60
2023-04-17T03:55:57.349Z,22.50
2023-04-17T03:59:05.039Z,39.25
2023-04-17T04:02:11.910Z,35.95
2023-04-17T04:05:15.829Z,35.78
2023-04-17T04:08:18.999Z,33.75
2023-04-17T04:11:25.320Z,32.22
2023-04-17T04:14:27.732Z,32.33
2023-04-17T04:17:30.483Z,31.30
2023-04-17T04:20:33.675Z,26.52
2023-04-17T04:23:47.110Z,21.90
2023-04-17T04:26:53.648Z,30.20
2023-04-17T04:29:59.004Z,27.52
2023-04-17T04:33:08.526Z,29.88
2023-04-17T04:36:14.029Z,28.63
2023-04-17T04:39:20.758Z,34.22
2023-04-17T04:42:24.125Z,29.90
2023-04-17T04:45:37.566Z,36.80
2023-04-17T04:48:42.690Z,44.42
2023-04-17T04:51:45.889Z,32.60
2023-04-17T04:54:48.912Z,31.13
2023-04-17T04:57:54.275Z,29.33
2023-04-17T05:00:57.994Z,30.00
2023-04-17T05:04:06.875Z,32.15
2023-04-17T05:07:09.754Z,27.73
2023-04-17T05:10:14.022Z,24.65
2023-04-17T05:13:22.063Z,31.33
2023-04-17T05:16:25.159Z,26.95
2023-04-17T05:19:28.137Z,27.90
2023-04-17T05:22:36.268Z,25.45
2023-04-17T05:25:45.684Z,22.25
2023-04-17T05:28:49.453Z,33.72
2023-04-17T05:31:57.293Z,18.92
2023-04-17T05:35:16.563Z,22.67
2023-04-17T05:38:19.182Z,19.48
2023-04-17T05:41:21.591Z,18.77
2023-04-17T05:44:23.889Z,19.92
2023-04-17T05:47:26.415Z,19.27
2023-04-17T05:50:29.103Z,18.65
2023-04-17T05:53:31.960Z,19.50
2023-04-17T05:56:35.105Z,20.33
2023-04-17T05:59:37.964Z,18.60
2023-04-17T06:02:43.320Z,22.05
2023-04-17T06:05:52.100Z,18.13
2023-04-17T06:08:54.923Z,22.57
2023-04-17T06:11:59.210Z,17.65
2023-04-17T06:15:01.717Z,20.42
2023-04-17T06:18:04.358Z,16.55
2023-04-17T06:21:08.117Z,20.20
2023-04-17T06:24:11.607Z,15.73
2023-04-17T06:27:19.798Z,18.60
2023-04-17T06:30:22.518Z,17.50
2023-04-17T06:33:28.561Z,13.63
2023-04-17T06:36:33.495Z,11.25
2023-04-17T06:39:38.996Z,15.98
2023-04-17T06:42:41.841Z,11.35
2023-04-17T06:45:49.248Z,12.50
2023-04-17T06:48:52.668Z,14.43
2023-04-17T06:51:55.774Z,22.27
2023-04-17T06:55:00.071Z,14.73
2023-04-17T06:58:02.836Z,11.20
2023-04-17T07:01:05.755Z,10.32
2023-04-17T07:04:09.237Z,11.18
2023-04-17T07:07:11.892Z,41.05
2023-04-17T07:10:16.250Z,11.75
2023-04-17T07:13:18.780Z,10.75
2023-04-17T07:16:24.433Z,10.85
2023-04-17T07:19:27.221Z,12.57
2023-04-17T07:22:29.577Z,16.98
2023-04-17T07:25:31.893Z,24.27
2023-04-17T07:28:34.566Z,11.10
2023-04-17T07:31:37.422Z,13.82
2023-04-17T07:34:41.633Z,13.07
2023-04-17T07:40:46.598Z,12.57
2023-04-17T07:43:49.042Z,10.60
2023-04-17T07:46:51.584Z,9.80
2023-04-17T07:49:53.962Z,15.50
2023-04-17T07:52:56.736Z,20.00
2023-04-17T07:55:59.735Z,18.98
2023-04-17T07:59:02.749Z,8.57
2023-04-17T08:02:06.028Z,7.18
2023-04-17T08:05:09.667Z,34.78
2023-04-17T08:08:12.029Z,4.37
2023-04-17T08:11:15.846Z,15.00
2023-04-17T08:14:20.471Z,29.35
2023-04-17T08:17:26.376Z,9.38
2023-04-17T08:20:28.782Z,8.52
2023-04-17T08:23:31.500Z,6.22
2023-04-17T08:26:33.959Z,7.38
2023-04-17T08:29:36.636Z,5.68
2023-04-17T08:32:46.871Z,3.90
2023-04-17T08:35:49.685Z,4.15
2023-04-17T08:38:52.954Z,10.82
2023-04-17T08:42:03.282Z,8.68
2023-04-17T08:45:07.770Z,5.05
2023-04-17T08:48:11.551Z,6.60
2023-04-17T08:51:15.425Z,11.60
2023-04-17T08:54:19.613Z,4.45
2023-04-17T08:57:22.004Z,4.20
2023-04-17T09:00:26.318Z,4.25
2023-04-17T09:03:41.276Z,4.18
2023-04-17T09:06:54.645Z,3.80
2023-04-17T09:09:57.688Z,5.13
2023-04-17T09:13:01.547Z,4.18
2023-04-17T09:16:06.241Z,3.65
2023-04-17T09:19:08.999Z,5.78
2023-04-17T09:22:21.721Z,9.15
2023-04-17T09:25:24.497Z,4.28
2023-04-17T09:28:26.892Z,8.80
2023-04-17T09:31:31.076Z,5.88
2023-04-17T09:37:55.839Z,7.05
2023-04-17T09:40:58.340Z,2.85
2023-04-17T09:44:05.579Z,6.03
2023-04-17T09:47:08.634Z,2.55
2023-04-17T09:50:11.795Z,17.63
2023-04-17T09:53:16.614Z,2.33
2023-04-17T09:56:21.765Z,46.50
2023-04-17T09:59:25.099Z,4.63
2023-04-17T10:02:28.584Z,1.97
2023-04-17T10:05:32.611Z,9.75
2023-04-17T10:08:35.379Z,6.10
2023-04-17T10:11:46.231Z,3.47
2023-04-17T10:14:51.060Z,3.25
2023-04-17T10:17:56.463Z,5.50
2023-04-17T10:21:22.527Z,4.75
2023-04-17T10:24:25.713Z,4.53
2023-04-17T10:27:28.168Z,3.33
2023-04-17T10:30:56.393Z,6.55
2023-04-17T10:33:58.794Z,3.97
2023-04-17T10:37:01.761Z,4.82
2023-04-17T10:40:10.369Z,7.15
2023-04-17T10:43:23.572Z,4.50
2023-04-17T10:46:26.863Z,3.53
2023-04-17T10:49:29.390Z,4.20
2023-04-17T10:52:41.729Z,6.35
2023-04-17T10:55:53.391Z,7.00
2023-04-17T10:58:59.601Z,7.90
2023-04-17T11:02:04.874Z,7.85
2023-04-17T11:05:08.663Z,4.68
2023-04-17T11:08:12.008Z,3.22
2023-04-17T11:11:26.936Z,2.65
2023-04-17T11:14:43.207Z,6.55
2023-04-17T11:17:48.602Z,10.15
2023-04-17T11:20:51.415Z,3.47
2023-04-17T11:23:53.850Z,2.33
2023-04-17T11:27:00.019Z,11.45
2023-04-17T11:30:02.697Z,8.73
2023-04-17T11:33:07.949Z,2.50
2023-04-17T11:36:11.089Z,2.60
2023-04-17T11:39:15.919Z,2.13
2023-04-17T11:42:27.894Z,2.13
2023-04-17T11:45:32.707Z,2.75
2023-04-17T11:48:35.512Z,4.03
2023-04-17T11:51:37.940Z,6.43
2023-04-17T11:54:41.315Z,3.67
2023-04-17T11:57:43.822Z,1.80
2023-04-17T12:00:46.236Z,5.57
2023-04-17T12:03:48.888Z,28.67
2023-04-17T12:06:51.463Z,2.42
2023-04-17T12:09:57.903Z,3.25
2023-04-17T12:13:00.422Z,4.93
2023-04-17T12:16:02.982Z,22.15
2023-04-17T12:19:05.645Z,3.40
2023-04-17T12:22:08.071Z,9.93
2023-04-17T12:25:10.776Z,3.03
2023-04-17T12:28:13.103Z,4.65
2023-04-17T12:31:15.616Z,2.85
2023-04-17T12:34:18.132Z,12.50
2023-04-17T12:37:20.748Z,7.80
2023-04-17T12:40:25.217Z,22.33
2023-04-17T12:43:27.847Z,4.13
2023-04-17T12:46:31.552Z,17.80
2023-04-17T12:49:33.927Z,6.30
2023-04-17T12:52:36.392Z,6.78
2023-04-17T12:55:41.079Z,8.50
2023-04-17T12:58:44.057Z,40.22
2023-04-17T13:01:46.938Z,3.65
2023-04-17T13:04:53.611Z,4.05
2023-04-17T13:07:57.274Z,5.63
2023-04-17T13:11:00.959Z,40.10
2023-04-17T13:14:04.003Z,6.00
2023-04-17T13:17:06.892Z,11.95
2023-04-17T13:20:10.311Z,22.25
2023-04-17T13:23:14.616Z,5.88
2023-04-17T13:26:17.101Z,4.57
2023-04-17T13:29:20.103Z,4.13
2023-04-17T13:32:23.125Z,11.45
2023-04-17T13:35:25.596Z,13.75
2023-04-17T13:38:28.023Z,5.80
2023-04-17T13:41:30.363Z,9.85
2023-04-17T13:44:33.349Z,35.13
2023-04-17T13:47:35.982Z,10.10
2023-04-17T13:50:38.592Z,7.72
2023-04-17T13:53:41.300Z,6.28
2023-04-17T13:56:43.817Z,46.85
2023-04-17T13:59:46.537Z,14.23
2023-04-17T14:02:49.235Z,9.02
2023-04-17T14:05:51.867Z,14.82
2023-04-17T14:08:55.500Z,13.73
2023-04-17T14:11:58.382Z,12.02
2023-04-17T14:15:00.710Z,9.85
2023-04-17T14:18:03.469Z,5.55
2023-04-17T14:21:06.072Z,5.57
2023-04-17T14:24:08.849Z,6.90
2023-04-17T14:27:11.298Z,9.55
2023-04-17T14:30:13.918Z,9.95
2023-04-17T14:33:16.190Z,6.88
2023-04-17T14:36:18.564Z,13.43
2023-04-17T14:39:20.913Z,9.25
2023-04-17T14:42:23.376Z,8.32
2023-04-17T14:45:25.910Z,18.63
2023-04-17T14:48:30.286Z,9.48
2023-04-17T14:51:33.637Z,10.80
2023-04-17T14:54:36.072Z,12.95
2023-04-17T14:57:38.365Z,13.25
2023-04-17T15:00:41.134Z,11.90
2023-04-17T15:03:47.448Z,14.43
2023-04-17T15:06:50.920Z,12.95
2023-04-17T15:09:55.291Z,19.50
2023-04-17T15:13:00.453Z,13.25
2023-04-17T15:16:03.447Z,13.63
2023-04-17T15:19:06.202Z,11.85
2023-04-17T15:22:08.701Z,14.38
2023-04-17T15:25:11.101Z,15.68
2023-04-17T15:28:13.568Z,15.93
2023-04-17T15:31:16.017Z,11.77
2023-04-17T15:34:18.922Z,16.58
2023-04-17T15:37:21.390Z,13.63
2023-04-17T15:40:23.919Z,12.50
2023-04-17T15:43:27.008Z,17.98
2023-04-17T15:46:31.879Z,15.18
2023-04-17T15:49:34.615Z,13.93
2023-04-17T15:52:37.096Z,17.83
2023-04-17T15:55:41.481Z,15.77
2023-04-17T15:58:43.983Z,14.23
2023-04-17T16:01:47.947Z,12.68
2023-04-17T16:04:50.348Z,12.90
2023-04-17T16:07:52.728Z,14.30
2023-04-17T16:10:55.460Z,14.55
2023-04-17T16:13:58.163Z,18.45
2023-04-17T16:17:01.277Z,16.15
2023-04-17T16:20:04.419Z,13.88
2023-04-17T16:23:06.849Z,14.40
2023-04-17T16:26:09.304Z,14.27
2023-04-17T16:29:11.836Z,13.88
2023-04-17T16:32:14.476Z,13.82
2023-04-17T16:35:17.550Z,17.90
2023-04-17T16:38:20.037Z,14.57
2023-04-17T16:41:22.393Z,15.52
2023-04-17T16:44:28.593Z,14.07
2023-04-17T16:47:31.435Z,14.48
2023-04-17T16:50:33.961Z,13.75
2023-04-17T16:53:36.385Z,13.63
2023-04-17T16:56:38.751Z,13.60
2023-04-17T16:59:41.144Z,15.80
2023-04-17T17:02:43.995Z,14.23
2023-04-17T17:05:48.164Z,14.60
2023-04-17T17:08:51.085Z,17.70
2023-04-17T17:11:54.600Z,15.15
2023-04-17T17:14:57.080Z,17.55
2023-04-17T17:17:59.386Z,16.52
2023-04-17T17:21:02.089Z,17.77
2023-04-17T17:24:04.724Z,16.90
2023-04-17T17:27:07.167Z,18.13
2023-04-17T17:30:09.846Z,18.90
2023-04-17T17:33:12.228Z,21.67
2023-04-17T17:36:14.992Z,20.67
2023-04-17T17:39:17.404Z,17.73
2023-04-17T17:42:19.767Z,21.88
2023-04-17T17:45:22.068Z,16.15
2023-04-17T17:48:24.505Z,19.02
2023-04-17T17:51:27.738Z,17.65
2023-04-17T17:54:30.068Z,18.25
2023-04-17T17:57:42.278Z,18.80
2023-04-17T18:00:51.538Z,18.63
2023-04-17T18:03:54.184Z,23.27
2023-04-17T18:06:56.840Z,16.50
2023-04-17T18:09:59.216Z,21.50
2023-04-17T18:13:01.805Z,19.08
2023-04-17T18:16:04.989Z,16.58
2023-04-17T18:19:07.774Z,13.23
2023-04-17T18:22:10.669Z,20.67
2023-04-17T18:25:13.177Z,16.60
2023-04-17T18:28:15.779Z,17.35
2023-04-17T18:31:19.114Z,16.77
2023-04-17T18:34:25.092Z,10.52
2023-04-17T18:37:27.622Z,19.55
2023-04-17T18:40:30.785Z,16.58
2023-04-17T18:43:33.297Z,17.55
2023-04-17T18:46:35.882Z,17.50
2023-04-17T18:49:38.590Z,17.20
2023-04-17T18:52:43.220Z,17.35
2023-04-17T18:55:47.994Z,17.48
2023-04-17T18:58:51.299Z,18.80
2023-04-17T19:01:53.657Z,20.57
2023-04-17T19:04:56.460Z,15.45
2023-04-17T19:07:59.020Z,15.43
2023-04-17T19:11:01.874Z,21.83
2023-04-17T19:14:04.197Z,21.85
2023-04-17T19:17:06.547Z,20.05
2023-04-17T19:20:09.920Z,19.10
2023-04-17T19:23:12.693Z,19.30
2023-04-17T19:26:18.286Z,18.33
2023-04-17T19:29:20.607Z,18.50
2023-04-17T19:32:22.902Z,19.73
2023-04-17T19:35:26.331Z,17.60
2023-04-17T19:38:28.940Z,19.23
2023-04-17T19:41:31.476Z,17.83
2023-04-17T19:44:33.888Z,17.50
2023-04-17T19:47:37.418Z,23.88
2023-04-17T19:50:39.852Z,22.23
2023-04-17T19:53:43.455Z,22.85
2023-04-17T19:56:45.941Z,25.08
2023-04-17T19:59:48.413Z,21.58
2023-04-17T20:02:51.030Z,19.23
2023-04-17T20:05:54.048Z,24.48
2023-04-17T20:08:58.519Z,19.60
2023-04-17T20:12:00.939Z,19.25
2023-04-17T20:15:03.496Z,25.83
2023-04-17T20:18:07.646Z,18.73
2023-04-17T20:24:13.052Z,20.33
2023-04-17T20:27:15.466Z,23.38
2023-04-17T20:30:17.900Z,22.52
2023-04-17T20:33:20.404Z,22.35
2023-04-17T20:36:22.780Z,22.75
2023-04-17T20:39:25.161Z,22.75
2023-04-17T20:42:27.634Z,25.38
2023-04-17T20:45:30.033Z,22.58
2023-04-17T20:48:32.477Z,20.35
2023-04-17T20:51:34.977Z,25.70
2023-04-17T20:54:37.378Z,25.17
2023-04-17T20:57:41.024Z,23.02
2023-04-17T21:00:57.847Z,25.73
2023-04-17T21:04:03.545Z,26.35
2023-04-17T21:07:06.170Z,25.57
2023-04-17T21:10:09.048Z,24.48
2023-04-17T21:13:11.523Z,26.13
2023-04-17T21:16:14.081Z,27.63
2023-04-17T21:19:16.507Z,26.00
2023-04-17T21:22:19.122Z,25.02
2023-04-17T21:25:21.750Z,28.10
2023-04-17T21:28:24.259Z,28.05
2023-04-17T21:31:26.945Z,27.48
2023-04-17T21:34:29.304Z,25.90
2023-04-17T21:37:31.595Z,22.48
2023-04-17T21:40:36.678Z,28.17
2023-04-17T21:43:39.415Z,26.08
2023-04-17T21:46:45.242Z,27.02
2023-04-17T21:49:47.569Z,27.63
2023-04-17T21:52:49.937Z,29.00
2023-04-17T21:55:52.277Z,26.60
2023-04-17T21:58:54.788Z,26.17
2023-04-17T22:01:57.282Z,27.88
2023-04-17T22:04:59.858Z,28.55
2023-04-17T22:08:02.403Z,24.33
2023-04-17T22:11:05.985Z,28.35
2023-04-17T22:14:08.464Z,25.13
2023-04-17T22:17:10.799Z,26.70
2023-04-17T22:21:09.283Z,26.42
2023-04-17T22:25:26.971Z,26.27
2023-04-17T22:29:44.083Z,26.45
2023-04-17T22:34:01.721Z,29.88
2023-04-17T22:38:18.852Z,31.73
2023-04-17T22:42:36.281Z,27.63
2023-04-17T22:46:53.238Z,23.70
2023-04-17T22:51:10.895Z,23.33
2023-04-17T22:55:28.195Z,29.77
2023-04-17T22:59:45.597Z,22.83
2023-04-17T23:04:03.247Z,23.17
2023-04-17T23:08:20.934Z,21.70
2023-04-17T23:11:41.981Z,24.83
2023-04-17T23:14:45.914Z,25.35
2023-04-17T23:17:48.309Z,26.27
2023-04-17T23:20:50.970Z,23.92
2023-04-17T23:23:53.368Z,30.35
2023-04-17T23:26:56.386Z,26.33
2023-04-17T23:29:59.589Z,24.70
2023-04-17T23:33:01.965Z,25.30
2023-04-17T23:36:04.637Z,25.63
2023-04-17T23:39:06.987Z,25.17
2023-04-17T23:42:09.877Z,25.33
2023-04-17T23:45:12.288Z,25.88
2023-04-17T23:48:14.861Z,23.52
2023-04-17T23:51:17.698Z,28.15
2023-04-17T23:54:20.204Z,27.25
2023-04-17T23:57:22.599Z,26.85
